Time;durP1;ratioP1;P1;durP2;ratioP2;P2;SDS_P1;SDS_P2;PMS_P1;PMS_P2;Temp;Humidity;BMP_temperature;BMP_pressure;BME280_temperature;BME280_humidity;BME280_pressure;Samples;Min_cycle;Max_cycle;Signal;HPM_P1;HPM_P2
2021/01/07 00:04:28;;;;;;;19.77;11.83;;;;;;;4.09;82.29;99626.98;2910689;81;21595;-69
2021/01/07 00:08:33;;;;;;;18.17;10.48;;;;;;;4.07;82.18;99620.97;2923855;80;21108;-68
2021/01/07 00:12:37;;;;;;;13.90;9.10;;;;;;;4.08;82.37;99625.29;2938212;80;21115;-69
2021/01/07 00:17:16;;;;;;;15.38;10.58;;;;;;;4.13;82.49;99627.17;2938899;80;21153;-69
2021/01/07 00:21:24;;;;;;;24.02;10.68;;;;;;;4.13;82.04;99617.09;2920481;80;21238;-71
2021/01/07 00:26:04;;;;;;;14.10;10.40;;;;;;;4.09;81.90;99625.66;2852773;83;21148;-70
2021/01/07 00:30:09;;;;;;;12.75;9.75;;;;;;;4.00;81.57;99617.89;2809751;84;21638;-69
2021/01/07 00:34:53;;;;;;;13.20;7.90;;;;;;;3.95;81.99;99629.69;2809657;84;21148;-68
2021/01/07 00:38:58;;;;;;;15.23;8.35;;;;;;;3.89;82.37;99627.43;2830433;82;21159;-69
2021/01/07 00:43:03;;;;;;;14.78;8.20;;;;;;;3.87;82.34;99632.81;2834741;83;21149;-69
2021/01/07 00:47:07;;;;;;;7.67;6.37;;;;;;;3.86;82.65;99634.58;2823777;83;21510;-69
2021/01/07 00:51:11;;;;;;;12.43;8.75;;;;;;;3.96;82.99;99637.46;2754555;86;21689;-69
2021/01/07 00:55:16;;;;;;;11.60;6.67;;;;;;;4.06;82.82;99638.20;2792711;82;21214;-69
2021/01/07 00:59:19;;;;;;;10.55;7.78;;;;;;;4.09;82.41;99632.24;2874144;81;21202;-69
2021/01/07 01:03:23;;;;;;;10.13;7.92;;;;;;;4.11;82.19;99636.10;2884844;81;21159;-69
2021/01/07 01:07:26;;;;;;;11.40;5.83;;;;;;;4.12;82.23;99635.16;2873164;81;21606;-69
2021/01/07 01:11:29;;;;;;;8.38;5.30;;;;;;;4.11;81.86;99640.88;2881005;81;21563;-69
2021/01/07 01:15:33;;;;;;;6.75;5.95;;;;;;;4.09;81.98;99638.82;2906675;81;21629;-69
2021/01/07 01:19:36;;;;;;;10.25;5.83;;;;;;;4.07;81.86;99648.61;2889900;81;21134;-69
2021/01/07 01:23:39;;;;;;;16.07;6.45;;;;;;;4.02;82.04;99648.07;2878696;81;21637;-69
2021/01/07 01:27:44;;;;;;;8.68;5.72;;;;;;;4.07;82.07;99648.61;2875781;81;21186;-69
2021/01/07 01:31:49;;;;;;;9.63;5.95;;;;;;;4.06;81.94;99649.55;2892321;81;21139;-69
2021/01/07 01:35:52;;;;;;;6.17;5.45;;;;;;;4.08;82.05;99650.30;2895548;81;21597;-69
2021/01/07 01:39:55;;;;;;;9.63;5.47;;;;;;;4.05;81.65;99645.23;2860605;81;21678;-70
2021/01/07 01:43:58;;;;;;;8.08;5.62;;;;;;;3.98;81.90;99650.53;2852445;83;21166;-68
2021/01/07 01:48:01;;;;;;;7.03;5.00;;;;;;;3.96;82.34;99647.16;2852933;83;21177;-69
2021/01/07 01:52:04;;;;;;;9.25;6.05;;;;;;;4.00;82.38;99646.84;2853501;83;21138;-69
2021/01/07 01:56:09;;;;;;;9.73;6.40;;;;;;;4.06;82.43;99636.39;2855507;83;21137;-69
2021/01/07 02:00:14;;;;;;;6.92;6.00;;;;;;;4.08;82.03;99635.81;2873411;81;21163;-68
2021/01/07 02:04:18;;;;;;;10.10;8.35;;;;;;;4.05;81.82;99641.29;2874516;81;21581;-69
2021/01/07 02:08:21;;;;;;;9.90;7.22;;;;;;;4.00;81.79;99634.17;2884268;81;21633;-69
2021/01/07 02:12:25;;;;;;;9.58;8.33;;;;;;;3.94;81.78;99631.95;2860393;83;21723;-69
2021/01/07 02:16:28;;;;;;;7.35;5.90;;;;;;;3.93;81.87;99634.17;2861043;83;21159;-69
2021/01/07 02:20:33;;;;;;;7.72;6.45;;;;;;;3.89;81.86;99632.69;2860921;83;21175;-68
2021/01/07 02:24:36;;;;;;;7.15;5.75;;;;;;;3.84;81.85;99619.86;2860406;83;21596;-68
2021/01/07 02:28:41;;;;;;;8.85;6.95;;;;;;;3.82;81.87;99629.61;2861205;83;21111;-68
2021/01/07 02:32:45;;;;;;;12.75;6.75;;;;;;;3.75;81.99;99630.50;2860769;83;21131;-69
2021/01/07 02:36:49;;;;;;;10.90;6.67;;;;;;;3.73;82.26;99626.27;2860695;83;21139;-69
2021/01/07 02:40:52;;;;;;;8.88;6.85;;;;;;;3.69;82.30;99627.78;2860904;83;21123;-69
2021/01/07 02:44:55;;;;;;;7.72;5.75;;;;;;;3.70;82.52;99630.78;2860690;83;21162;-68
2021/01/07 02:49:00;;;;;;;12.80;6.60;;;;;;;3.69;82.55;99621.20;2860930;83;21126;-69
2021/01/07 02:53:03;;;;;;;9.70;7.17;;;;;;;3.65;82.87;99620.17;2859487;83;21182;-68
2021/01/07 02:57:06;;;;;;;6.83;5.95;;;;;;;3.65;82.91;99617.55;2857243;83;21138;-68
2021/01/07 03:01:10;;;;;;;12.25;8.80;;;;;;;3.59;82.99;99616.62;2867205;81;21170;-68
2021/01/07 03:05:13;;;;;;;11.40;7.62;;;;;;;3.55;83.33;99616.83;2880795;81;21154;-68
2021/01/07 03:09:16;;;;;;;6.80;6.10;;;;;;;3.54;83.40;99615.59;2883217;81;21131;-68
2021/01/07 03:13:19;;;;;;;9.80;8.73;;;;;;;3.51;83.48;99619.25;2907449;81;21157;-68
2021/01/07 03:17:23;;;;;;;10.63;7.50;;;;;;;3.48;83.65;99624.72;2907466;81;21510;-69
2021/01/07 03:21:26;;;;;;;8.53;7.50;;;;;;;3.48;83.64;99626.52;2886741;81;21131;-68
2021/01/07 03:25:29;;;;;;;9.50;6.72;;;;;;;3.47;83.75;99625.66;2857207;83;21171;-68
2021/01/07 03:29:33;;;;;;;9.98;7.17;;;;;;;3.43;83.87;99618.91;2857567;83;21206;-68
2021/01/07 03:33:37;;;;;;;9.35;5.78;;;;;;;3.43;84.07;99625.00;2857577;83;21127;-69
2021/01/07 03:37:40;;;;;;;7.30;6.10;;;;;;;3.42;83.93;99617.22;2857216;83;21162;-68
2021/01/07 03:41:44;;;;;;;10.85;8.23;;;;;;;3.39;84.09;99618.73;2891395;81;21139;-68
2021/01/07 03:45:47;;;;;;;9.53;7.40;;;;;;;3.37;84.11;99611.41;2856895;83;21183;-68
2021/01/07 03:49:51;;;;;;;7.85;6.10;;;;;;;3.39;84.36;99615.62;2857138;83;21190;-68
2021/01/07 03:53:54;;;;;;;8.03;5.75;;;;;;;3.39;84.28;99618.25;2858976;83;21147;-68
2021/01/07 03:57:57;;;;;;;13.75;6.83;;;;;;;3.37;84.19;99619.30;2860148;83;21135;-69
2021/01/07 04:02:01;;;;;;;11.00;6.85;;;;;;;3.37;84.33;99627.19;2866374;81;21145;-71
2021/01/07 04:06:05;;;;;;;10.48;7.00;;;;;;;3.37;84.40;99634.59;2892735;81;21135;-69
2021/01/07 04:10:09;;;;;;;8.65;6.42;;;;;;;3.38;84.30;99632.33;2897614;81;21131;-67
2021/01/07 04:14:12;;;;;;;10.32;8.53;;;;;;;3.39;84.04;99631.39;2875715;81;21187;-68
2021/01/07 04:18:15;;;;;;;8.85;6.95;;;;;;;3.39;84.01;99634.51;2861020;81;21099;-68
2021/01/07 04:22:20;;;;;;;10.00;6.33;;;;;;;3.35;84.00;99631.70;2903197;81;21147;-68
2021/01/07 04:26:27;;;;;;;8.78;7.33;;;;;;;3.31;84.03;99630.18;2876771;81;21158;-68
2021/01/07 04:30:33;;;;;;;10.35;7.22;;;;;;;3.29;83.84;99628.49;2860394;83;21171;-66
2021/01/07 04:34:36;;;;;;;10.00;7.45;;;;;;;3.18;83.71;99625.70;2860364;83;21138;-67
2021/01/07 04:38:39;;;;;;;12.23;8.90;;;;;;;3.10;84.05;99633.20;2860509;83;21135;-67
2021/01/07 04:42:43;;;;;;;13.28;8.55;;;;;;;3.01;84.24;99634.59;2860392;83;21190;-66
2021/01/07 04:46:48;;;;;;;10.68;7.90;;;;;;;2.96;84.42;99631.41;2860246;83;21199;-66
2021/01/07 04:50:51;;;;;;;9.80;7.47;;;;;;;2.91;84.53;99633.00;2860476;83;21179;-66
2021/01/07 04:54:56;;;;;;;10.72;8.03;;;;;;;2.91;84.79;99625.12;2886833;81;21161;-66
2021/01/07 04:58:59;;;;;;;9.40;6.58;;;;;;;2.91;84.61;99625.61;2907084;81;21175;-67
2021/01/07 05:03:07;;;;;;;10.53;8.88;;;;;;;2.85;84.67;99633.38;2866991;81;21166;-68
2021/01/07 05:07:10;;;;;;;14.95;7.97;;;;;;;2.82;84.75;99630.94;2884325;81;21593;-64
2021/01/07 05:11:20;;;;;;;12.82;8.23;;;;;;;2.81;84.95;99630.56;2903530;81;21151;-64
2021/01/07 05:15:23;;;;;;;10.80;6.97;;;;;;;2.77;84.94;99627.27;2860918;83;21166;-64
2021/01/07 05:19:26;;;;;;;15.13;9.40;;;;;;;2.75;85.02;99630.91;2868527;81;21187;-65
2021/01/07 05:23:29;;;;;;;17.32;9.95;;;;;;;2.73;85.19;99630.16;2895907;81;21103;-63
2021/01/07 05:27:35;;;;;;;10.88;6.85;;;;;;;2.74;85.33;99631.85;2891220;81;21131;-61
2021/01/07 05:31:43;;;;;;;15.00;8.70;;;;;;;2.69;85.40;99628.20;2845319;81;21163;-63
2021/01/07 05:35:46;;;;;;;12.13;6.92;;;;;;;2.71;85.49;99628.95;2886527;81;21172;-63
2021/01/07 05:39:50;;;;;;;11.73;7.15;;;;;;;2.69;85.43;99629.52;2889666;81;21154;-62
2021/01/07 05:44:10;;;;;;;12.40;6.65;;;;;;;2.68;85.65;99630.46;2845249;81;21142;-61
2021/01/07 05:48:13;;;;;;;9.48;8.38;;;;;;;2.65;85.66;99634.10;2857075;83;21144;-63
2021/01/07 05:52:15;;;;;;;11.43;8.00;;;;;;;2.62;85.79;99630.34;2876951;81;21217;-62
2021/01/07 05:56:24;;;;;;;16.62;10.55;;;;;;;2.62;85.82;99634.29;2828493;84;21164;-61
2021/01/07 06:00:31;;;;;;;12.68;8.55;;;;;;;2.60;85.95;99634.85;2823656;84;21173;-62
2021/01/07 06:04:36;;;;;;;16.37;9.10;;;;;;;2.57;86.11;99639.80;2784385;85;21181;-62
2021/01/07 06:08:44;;;;;;;14.07;7.85;;;;;;;2.57;86.19;99635.04;2784237;85;21149;-63
2021/01/07 06:12:47;;;;;;;13.08;9.48;;;;;;;2.55;86.17;99641.68;2784105;85;21161;-63
2021/01/07 06:16:56;;;;;;;13.35;9.50;;;;;;;2.58;86.18;99643.29;2784418;85;21204;-61
2021/01/07 06:21:04;;;;;;;15.15;11.25;;;;;;;2.58;86.19;99638.04;2784607;85;21182;-63
2021/01/07 06:25:13;;;;;;;12.88;8.85;;;;;;;2.61;86.20;99642.25;2739287;85;21180;-62
2021/01/07 06:29:16;;;;;;;19.45;11.28;;;;;;;2.58;86.03;99647.23;2771700;85;21141;-62
2021/01/07 06:33:18;;;;;;;15.38;8.25;;;;;;;2.57;86.10;99648.17;2804985;84;21109;-63
2021/01/07 06:37:43;;;;;;;13.32;8.45;;;;;;;2.60;86.07;99658.48;2772195;84;21159;-61
2021/01/07 06:41:58;;;;;;;15.45;9.73;;;;;;;2.65;86.06;99655.11;2793939;84;21157;-61
2021/01/07 06:46:02;;;;;;;14.93;10.60;;;;;;;2.65;85.87;99664.30;2831851;84;21153;-62
2021/01/07 06:50:06;;;;;;;15.35;10.40;;;;;;;2.66;85.84;99658.11;2783128;85;21168;-63
2021/01/07 06:54:10;;;;;;;10.80;9.20;;;;;;;2.71;85.80;99667.88;2806748;83;21116;-63
2021/01/07 06:58:18;;;;;;;11.53;10.10;;;;;;;2.79;85.59;99665.28;2810884;84;21713;-62
2021/01/07 07:02:21;;;;;;;15.98;10.98;;;;;;;2.77;85.51;99669.78;2840221;83;21491;-64
2021/01/07 07:06:27;;;;;;;14.35;9.55;;;;;;;2.78;85.59;99668.84;2840338;83;21159;-63
2021/01/07 07:10:42;;;;;;;15.35;10.55;;;;;;;2.80;85.50;99667.80;2811163;84;21149;-63
2021/01/07 07:14:50;;;;;;;16.30;11.18;;;;;;;2.83;85.43;99679.91;2811055;84;21165;-62
2021/01/07 07:18:56;;;;;;;17.12;9.70;;;;;;;2.85;85.30;99684.16;2824372;83;21205;-62
2021/01/07 07:23:05;;;;;;;16.17;10.63;;;;;;;2.87;85.25;99684.53;2802523;83;21192;-62
2021/01/07 07:27:10;;;;;;;20.55;11.00;;;;;;;2.89;85.22;99691.36;2784216;84;21339;-62
2021/01/07 07:31:19;;;;;;;14.20;11.45;;;;;;;2.90;85.11;99693.05;2791585;83;21587;-62
2021/01/07 07:35:34;;;;;;;15.25;10.13;;;;;;;2.94;84.93;99701.13;2839900;83;21145;-63
2021/01/07 07:39:38;;;;;;;14.43;11.20;;;;;;;2.95;84.56;99701.53;2793784;84;21137;-62
2021/01/07 07:43:40;;;;;;;11.48;8.95;;;;;;;3.02;84.34;99710.34;2840300;83;21156;-63
2021/01/07 07:47:44;;;;;;;15.20;11.00;;;;;;;3.04;84.16;99715.04;2839798;83;21148;-63
2021/01/07 07:51:53;;;;;;;12.33;9.75;;;;;;;3.03;83.99;99710.72;2810128;84;21355;-63
2021/01/07 07:55:56;;;;;;;12.63;9.85;;;;;;;3.03;84.00;99711.55;2848715;83;21190;-62
2021/01/07 08:00:18;;;;;;;11.63;8.45;;;;;;;3.06;83.87;99712.71;2858958;83;21179;-62
2021/01/07 08:04:26;;;;;;;13.83;9.10;;;;;;;3.09;83.73;99720.41;2858957;81;21170;-62
2021/01/07 08:08:30;;;;;;;20.27;11.48;;;;;;;3.12;83.47;99721.98;2893877;81;21139;-62
2021/01/07 08:12:36;;;;;;;19.80;12.10;;;;;;;3.14;83.45;99718.79;2885135;81;21170;-63
2021/01/07 08:16:40;;;;;;;19.67;12.35;;;;;;;3.13;83.21;99715.78;2891951;81;21147;-63
2021/01/07 08:20:43;;;;;;;19.40;13.70;;;;;;;3.12;83.06;99711.02;2880605;81;21163;-63
2021/01/07 08:24:47;;;;;;;23.52;12.88;;;;;;;3.14;82.95;99724.05;2867065;81;21194;-63
2021/01/07 08:28:51;;;;;;;21.77;11.10;;;;;;;3.11;82.65;99716.35;2880052;81;21160;-63
2021/01/07 08:32:58;;;;;;;23.12;14.13;;;;;;;3.12;82.67;99724.61;2878676;81;21187;-64
2021/01/07 08:37:14;;;;;;;20.55;14.78;;;;;;;3.12;82.72;99719.36;2902630;81;21159;-64
2021/01/07 08:41:29;;;;;;;16.48;10.20;;;;;;;3.19;82.48;99724.64;2906816;81;21573;-64
2021/01/07 08:45:53;;;;;;;14.23;11.45;;;;;;;3.20;82.28;99722.39;2882005;81;21123;-63
2021/01/07 08:50:14;;;;;;;15.35;10.32;;;;;;;3.20;82.31;99722.39;2875779;81;21134;-63
2021/01/07 08:59:33;;;;;;;16.65;10.45;;;;;;;3.32;81.96;99729.14;3070021;76;22962;-63
2021/01/07 09:03:43;;;;;;;17.90;12.45;;;;;;;3.33;81.85;99732.14;3060114;77;21089;-63
2021/01/07 09:07:46;;;;;;;15.70;12.10;;;;;;;3.33;81.76;99720.31;3095004;75;21097;-62
2021/01/07 09:11:49;;;;;;;13.90;10.80;;;;;;;3.35;81.70;99727.66;3067615;77;21512;-63
2021/01/07 09:16:24;;;;;;;23.50;11.70;;;;;;;3.38;81.76;99732.73;3057097;77;21102;-64
2021/01/07 09:20:34;;;;;;;20.23;12.37;;;;;;;3.41;81.76;99724.16;3064073;77;21736;-64
2021/01/07 09:25:05;;;;;;;19.90;13.95;;;;;;;3.51;81.50;99728.88;3083567;76;21526;-63
2021/01/07 09:29:08;;;;;;;16.95;12.10;;;;;;;3.57;81.45;99729.80;3049113;77;21136;-65
2021/01/07 09:33:48;;;;;;;17.77;13.22;;;;;;;3.54;81.22;99722.11;3130019;75;21089;-64
2021/01/07 09:37:52;;;;;;;19.40;12.80;;;;;;;3.56;81.30;99732.06;3089407;75;21101;-64
2021/01/07 09:41:56;;;;;;;18.60;12.10;;;;;;;3.59;81.18;99720.52;3115651;75;21135;-63
2021/01/07 09:45:59;;;;;;;16.70;11.70;;;;;;;3.60;81.03;99728.30;3110356;75;21121;-64
2021/01/07 09:50:08;;;;;;;19.77;12.33;;;;;;;3.63;80.97;99727.27;3081236;77;21132;-65
2021/01/07 09:54:14;;;;;;;16.32;12.58;;;;;;;3.65;80.88;99725.39;3119381;75;21203;-63
2021/01/07 09:58:17;;;;;;;19.82;10.70;;;;;;;3.67;80.67;99726.14;3038057;77;21105;-64
2021/01/07 10:02:21;;;;;;;16.25;10.95;;;;;;;3.68;80.56;99726.51;3044958;77;21137;-65
2021/01/07 10:06:25;;;;;;;15.80;9.65;;;;;;;3.69;80.50;99723.80;3050032;77;21113;-63
2021/01/07 10:10:29;;;;;;;13.88;9.93;;;;;;;3.73;80.25;99723.59;3031116;77;21152;-64
2021/01/07 10:14:34;;;;;;;14.95;10.32;;;;;;;3.76;80.36;99717.69;3044121;77;21642;-64
2021/01/07 10:18:38;;;;;;;16.77;11.08;;;;;;;3.78;79.81;99716.26;3094646;76;21120;-63
2021/01/07 10:22:42;;;;;;;17.52;12.50;;;;;;;3.77;79.47;99708.85;3085907;76;21132;-63
2021/01/07 10:26:45;;;;;;;12.47;8.65;;;;;;;3.76;79.46;99715.06;3077126;76;21089;-65
2021/01/07 10:30:49;;;;;;;16.40;10.32;;;;;;;3.75;79.39;99712.05;3108317;76;22320;-65
2021/01/07 10:34:52;;;;;;;12.28;9.15;;;;;;;3.76;79.33;99703.22;3096105;76;21539;-66
2021/01/07 10:38:58;;;;;;;18.25;12.45;;;;;;;3.78;79.46;99701.33;3089771;76;21145;-63
2021/01/07 10:43:01;;;;;;;12.73;9.23;;;;;;;3.81;79.24;99712.11;3106537;76;21110;-62
2021/01/07 10:47:07;;;;;;;15.32;10.32;;;;;;;3.80;79.31;99703.39;3118416;76;21606;-62
2021/01/07 10:51:11;;;;;;;13.45;10.93;;;;;;;3.81;79.13;99709.03;3058569;77;21148;-63
2021/01/07 10:55:24;;;;;;;16.05;10.10;;;;;;;3.80;78.90;99702.53;3109741;76;21106;-64
2021/01/07 10:59:53;;;;;;;14.10;9.15;;;;;;;3.78;79.19;99703.96;3113352;76;21164;-62
2021/01/07 11:04:21;;;;;;;13.10;9.30;;;;;;;3.73;78.87;99695.49;3105831;76;21133;-62
2021/01/07 11:08:32;;;;;;;12.53;9.50;;;;;;;3.71;78.93;99698.69;3055716;77;21105;-62
2021/01/07 11:12:43;;;;;;;12.68;10.98;;;;;;;3.70;78.77;99702.27;3041051;77;21133;-62
2021/01/07 11:16:53;;;;;;;13.90;9.75;;;;;;;3.72;79.07;99704.33;3060717;77;21128;-65
2021/01/07 11:21:04;;;;;;;14.47;9.95;;;;;;;3.69;78.79;99706.70;3072763;77;21120;-62
2021/01/07 11:25:10;;;;;;;13.72;9.78;;;;;;;3.69;78.99;99691.38;3073052;77;21125;-63
2021/01/07 11:29:14;;;;;;;11.60;8.53;;;;;;;3.67;79.15;99695.89;3072984;77;21132;-64
2021/01/07 11:33:18;;;;;;;16.50;12.03;;;;;;;3.67;79.14;99707.72;3063921;77;21677;-66
2021/01/07 11:37:35;;;;;;;20.02;11.40;;;;;;;3.68;79.29;99708.09;3053646;77;21089;-63
2021/01/07 11:42:06;;;;;;;16.15;10.85;;;;;;;3.68;79.41;99702.38;3071138;77;21599;-64
2021/01/07 11:46:19;;;;;;;14.05;10.95;;;;;;;3.66;78.92;99706.03;3051319;77;21128;-63
2021/01/07 11:50:25;;;;;;;16.77;12.78;;;;;;;3.69;78.90;99704.52;3073299;77;21116;-64
2021/01/07 11:54:28;;;;;;;11.18;9.40;;;;;;;3.71;79.18;99698.69;3072641;76;21700;-62
2021/01/07 11:58:35;;;;;;;15.00;8.83;;;;;;;3.70;78.85;99695.69;3069338;76;21156;-64
2021/01/07 12:02:41;;;;;;;13.55;10.58;;;;;;;3.70;78.79;99689.11;3068459;77;21135;-64
2021/01/07 12:06:58;;;;;;;10.60;8.93;;;;;;;3.72;78.89;99697.75;3076241;77;21124;-63
2021/01/07 12:11:04;;;;;;;12.75;9.40;;;;;;;3.75;79.01;99701.53;3081778;77;21131;-63
2021/01/07 12:15:15;;;;;;;15.10;10.67;;;;;;;3.78;78.87;99686.00;3026528;77;21135;-64
2021/01/07 12:19:22;;;;;;;11.73;9.65;;;;;;;3.78;78.87;99686.00;3081262;77;21132;-65
2021/01/07 12:23:25;;;;;;;;;;;;;;;3.81;78.49;99693.70;3077082;77;21626;-63
2021/01/07 12:27:28;;;;;;;14.23;10.40;;;;;;;3.86;78.71;99703.48;3062860;77;20178;-65
2021/01/07 12:31:35;;;;;;;13.70;9.93;;;;;;;3.89;78.30;99698.02;3081634;77;21133;-62
2021/01/07 12:36:03;;;;;;;12.55;8.75;;;;;;;3.86;78.14;99701.68;3083177;77;21159;-65
2021/01/07 12:40:09;;;;;;;13.60;9.28;;;;;;;3.85;78.18;99699.16;3083031;77;21546;-63
2021/01/07 12:44:14;;;;;;;16.02;10.40;;;;;;;3.82;77.71;99696.24;3065149;77;21133;-63
2021/01/07 12:48:18;;;;;;;14.95;10.80;;;;;;;3.82;78.16;99689.66;3066794;77;21088;-63
2021/01/07 12:52:29;;;;;;;17.53;10.33;;;;;;;3.84;78.31;99695.67;3041047;77;21602;-63
2021/01/07 12:57:24;;;;;;;16.90;10.40;;;;;;;3.86;78.48;99692.47;3066002;77;21136;-63
2021/01/07 13:01:41;;;;;;;14.95;9.98;;;;;;;3.89;78.15;99700.66;3014358;78;21178;-64
2021/01/07 13:05:54;;;;;;;16.40;12.00;;;;;;;3.90;78.18;99700.16;3032237;78;21149;-65
2021/01/07 13:10:05;;;;;;;18.20;12.25;;;;;;;3.90;78.42;99698.84;3015125;77;21505;-65
2021/01/07 13:14:08;;;;;;;15.28;10.60;;;;;;;3.92;78.51;99710.12;3043648;78;21129;-68
2021/01/07 13:18:11;;;;;;;19.30;11.78;;;;;;;3.91;77.83;99711.06;3047271;76;21470;-64
2021/01/07 13:22:14;;;;;;;19.25;11.73;;;;;;;3.90;78.33;99711.55;3018683;77;21144;-64
2021/01/07 13:26:18;;;;;;;17.50;11.63;;;;;;;3.93;78.09;99711.80;3041882;78;21880;-65
2021/01/07 13:30:22;;;;;;;17.80;10.28;;;;;;;3.91;77.84;99702.71;3045923;78;21077;-66
2021/01/07 13:34:25;;;;;;;16.32;11.38;;;;;;;3.93;78.28;99705.23;3046938;76;21157;-65
2021/01/07 13:38:32;;;;;;;19.27;11.70;;;;;;;3.97;78.53;99706.75;3045330;77;22177;-66
2021/01/07 13:42:36;;;;;;;17.00;11.30;;;;;;;3.97;77.90;99712.01;3039640;78;21117;-68
2021/01/07 13:46:43;;;;;;;18.85;11.73;;;;;;;3.98;78.06;99720.28;3044305;77;21149;-67
2021/01/07 13:50:48;;;;;;;14.30;11.05;;;;;;;3.95;77.88;99719.98;3048815;77;21120;-70
2021/01/07 13:54:53;;;;;;;17.65;10.75;;;;;;;3.97;77.68;99719.41;3047741;78;21338;-66
2021/01/07 13:58:56;;;;;;;18.25;10.75;;;;;;;3.95;77.56;99717.84;3034471;78;21156;-71
2021/01/07 14:03:00;;;;;;;14.85;10.68;;;;;;;3.92;77.71;99712.75;3027623;78;21112;-69
2021/01/07 14:07:25;;;;;;;14.40;11.03;;;;;;;3.89;77.74;99720.84;3025659;78;21682;-63
2021/01/07 14:11:32;;;;;;;18.87;11.88;;;;;;;3.83;78.10;99723.38;3029129;78;21579;-65
2021/01/07 14:15:36;;;;;;;14.20;11.10;;;;;;;3.84;78.35;99718.03;3027736;78;21132;-61
2021/01/07 14:19:41;;;;;;;15.75;10.75;;;;;;;3.87;78.29;99722.27;3029689;78;21136;-59
2021/01/07 14:23:45;;;;;;;13.53;10.32;;;;;;;3.87;77.91;99728.85;3031807;78;21113;-62
2021/01/07 14:28:15;;;;;;;17.42;10.35;;;;;;;3.88;77.85;99723.10;3031558;78;21128;-61
2021/01/07 14:32:19;;;;;;;20.43;12.33;;;;;;;3.91;77.88;99734.74;3032377;78;21097;-61
2021/01/07 14:36:23;;;;;;;15.45;9.83;;;;;;;3.88;77.81;99732.31;3031776;78;21109;-61
2021/01/07 14:40:29;;;;;;;13.20;10.90;;;;;;;3.89;77.82;99740.58;3032672;78;21117;-63
2021/01/07 14:44:33;;;;;;;11.75;8.90;;;;;;;3.88;77.85;99741.52;3030212;78;21160;-60
2021/01/07 14:48:38;;;;;;;12.98;10.63;;;;;;;3.85;77.94;99739.46;3026555;78;21148;-62
2021/01/07 14:52:45;;;;;;;15.20;11.05;;;;;;;3.86;77.97;99739.83;3011837;78;21109;-63
2021/01/07 14:56:51;;;;;;;15.88;11.12;;;;;;;3.84;78.09;99744.84;3031753;78;21106;-62
2021/01/07 15:01:15;;;;;;;11.20;9.33;;;;;;;3.86;77.74;99749.53;3055061;77;21625;-64
2021/01/07 15:05:27;;;;;;;13.53;8.95;;;;;;;3.84;77.50;99743.03;3112038;76;21560;-64
2021/01/07 15:09:32;;;;;;;13.68;9.25;;;;;;;3.88;77.54;99753.36;3097602;76;21082;-63
2021/01/07 15:13:37;;;;;;;15.50;10.45;;;;;;;3.85;77.43;99751.79;3087330;76;21129;-70
2021/01/07 15:18:05;;;;;;;14.57;10.03;;;;;;;3.82;77.11;99750.64;3112433;76;21116;-69
2021/01/07 15:22:30;;;;;;;16.90;8.88;;;;;;;3.76;76.91;99751.03;3112882;76;21125;-69
2021/01/07 15:27:15;;;;;;;10.72;8.85;;;;;;;3.72;77.03;99755.63;3091500;76;21579;-71
2021/01/07 15:31:39;;;;;;;11.70;9.60;;;;;;;3.68;76.96;99764.65;3113558;76;21675;-69
2021/01/07 15:35:52;;;;;;;16.17;9.63;;;;;;;3.64;77.14;99752.18;3113304;76;21109;-69
2021/01/07 15:40:48;;;;;;;15.55;9.35;;;;;;;3.64;77.00;99759.21;3113570;76;21142;-70
2021/01/07 15:45:37;;;;;;;12.80;9.05;;;;;;;3.65;77.19;99750.37;3113699;76;21113;-68
2021/01/07 15:50:11;;;;;;;11.08;9.70;;;;;;;3.62;77.10;99761.92;3113352;76;21603;-70
2021/01/07 15:54:37;;;;;;;10.75;6.40;;;;;;;3.57;77.15;99763.54;3113490;76;21961;-70
2021/01/07 15:59:25;;;;;;;12.43;9.60;;;;;;;3.54;77.10;99768.99;3113067;76;21117;-69
2021/01/07 16:03:47;;;;;;;10.87;8.70;;;;;;;3.54;77.06;99768.13;3113228;76;21522;-70
2021/01/07 16:08:07;;;;;;;13.95;7.80;;;;;;;3.47;76.98;99767.66;3113531;76;21086;-69
2021/01/07 16:12:12;;;;;;;14.68;10.75;;;;;;;3.48;77.17;99763.25;3113616;76;21077;-69
2021/01/07 16:16:20;;;;;;;12.93;8.70;;;;;;;3.48;77.13;99757.51;3113182;76;21133;-70
2021/01/07 16:20:24;;;;;;;10.15;7.22;;;;;;;3.47;77.03;99757.13;3112672;76;21082;-70
2021/01/07 16:24:32;;;;;;;11.22;9.68;;;;;;;3.44;76.82;99758.64;3113185;76;21101;-70
2021/01/07 16:28:35;;;;;;;15.65;9.10;;;;;;;3.45;76.83;99755.08;3112864;76;21579;-70
2021/01/07 16:32:39;;;;;;;11.48;9.33;;;;;;;3.43;76.79;99755.64;3113085;76;21579;-71
2021/01/07 16:36:43;;;;;;;13.88;8.15;;;;;;;3.43;76.79;99763.04;3112615;76;21109;-71
2021/01/07 16:40:46;;;;;;;13.43;8.63;;;;;;;3.44;76.82;99762.59;3112814;76;21137;-69
2021/01/07 16:44:50;;;;;;;11.63;8.58;;;;;;;3.41;76.89;99770.66;3112982;76;21137;-71
2021/01/07 16:48:53;;;;;;;13.13;9.15;;;;;;;3.43;76.80;99770.09;3113249;76;21137;-70
2021/01/07 16:52:58;;;;;;;16.73;9.60;;;;;;;3.43;76.79;99770.09;3112963;76;21160;-69
2021/01/07 16:57:01;;;;;;;13.95;9.83;;;;;;;3.45;76.33;99776.59;3112946;76;21156;-69
2021/01/07 17:01:05;;;;;;;18.62;9.70;;;;;;;3.43;76.38;99768.78;3113071;76;21439;-70
2021/01/07 17:05:09;;;;;;;14.80;8.10;;;;;;;3.42;76.42;99775.81;3113027;76;21085;-70
2021/01/07 17:09:12;;;;;;;12.95;9.00;;;;;;;3.43;76.39;99780.62;3113147;76;21195;-69
2021/01/07 17:13:16;;;;;;;12.65;8.43;;;;;;;3.44;76.62;99784.94;3112872;76;21694;-69
2021/01/07 17:17:19;;;;;;;15.72;9.73;;;;;;;3.44;76.24;99782.31;3112620;76;21121;-70
2021/01/07 17:21:22;;;;;;;8.45;6.53;;;;;;;3.46;76.14;99779.11;3113268;76;22310;-70
2021/01/07 17:25:26;;;;;;;13.88;9.55;;;;;;;3.48;76.17;99788.23;3113166;76;21109;-70
2021/01/07 17:29:30;;;;;;;13.85;8.98;;;;;;;3.49;76.19;99784.19;3104319;76;21081;-71
2021/01/07 17:33:33;;;;;;;10.93;8.68;;;;;;;3.49;76.21;99782.87;3108846;76;21149;-64
2021/01/07 17:37:36;;;;;;;12.05;7.42;;;;;;;3.46;76.17;99784.86;3100491;76;21163;-64
2021/01/07 17:41:43;;;;;;;14.40;8.65;;;;;;;3.46;76.30;99786.17;3095321;76;21129;-65
2021/01/07 17:45:46;;;;;;;9.73;8.58;;;;;;;3.46;76.50;99788.80;3101107;76;21101;-64
2021/01/07 17:49:49;;;;;;;13.30;8.43;;;;;;;3.46;76.57;99786.17;3096783;76;21709;-65
2021/01/07 17:53:52;;;;;;;13.03;7.87;;;;;;;3.44;75.98;99794.14;3113342;75;21141;-65
2021/01/07 17:57:55;;;;;;;13.53;8.18;;;;;;;3.47;75.94;99795.27;3091406;76;21564;-66
2021/01/07 18:01:58;;;;;;;12.07;7.90;;;;;;;3.46;75.80;99791.43;3087961;76;21117;-64
2021/01/07 18:06:01;;;;;;;11.00;6.20;;;;;;;3.47;75.75;99797.89;3092208;76;21145;-66
2021/01/07 18:10:06;;;;;;;11.40;7.85;;;;;;;3.49;75.63;99794.70;3089705;76;21125;-65
2021/01/07 18:14:09;;;;;;;11.93;6.85;;;;;;;3.47;75.10;99796.58;3090820;76;21576;-66
2021/01/07 18:18:12;;;;;;;12.30;8.28;;;;;;;3.48;74.52;99810.59;3091838;76;21161;-64
2021/01/07 18:22:15;;;;;;;10.93;7.35;;;;;;;3.48;74.96;99806.16;3088778;76;21089;-65
2021/01/07 18:26:18;;;;;;;8.25;6.72;;;;;;;3.47;74.64;99803.16;3092753;76;21110;-65
2021/01/07 18:30:22;;;;;;;7.67;6.65;;;;;;;3.53;74.60;99809.35;3098257;76;21579;-66
2021/01/07 18:34:25;;;;;;;13.15;7.28;;;;;;;3.52;74.87;99803.72;3087564;76;21121;-64
2021/01/07 18:38:28;;;;;;;13.70;9.10;;;;;;;3.51;74.61;99805.97;3046595;77;21088;-65
2021/01/07 18:42:33;;;;;;;16.30;7.95;;;;;;;3.53;74.36;99817.73;3091936;76;21616;-65
2021/01/07 18:46:38;;;;;;;13.18;8.88;;;;;;;3.53;74.77;99824.30;3080475;76;21101;-65
2021/01/07 18:50:41;;;;;;;11.03;6.05;;;;;;;3.53;74.90;99825.13;3097527;76;21086;-64
2021/01/07 18:54:47;;;;;;;8.20;6.00;;;;;;;3.56;74.89;99823.66;3089000;76;21132;-65
2021/01/07 18:58:53;;;;;;;10.32;6.87;;;;;;;3.57;74.94;99824.03;3029412;76;21132;-65
2021/01/07 19:02:56;;;;;;;11.68;5.60;;;;;;;3.62;74.85;99828.16;3052744;76;21116;-66
2021/01/07 19:06:59;;;;;;;7.80;6.20;;;;;;;3.59;74.69;99832.30;3045340;76;21112;-66
2021/01/07 19:11:02;;;;;;;10.55;5.95;;;;;;;3.57;74.36;99829.75;3104791;76;21120;-65
2021/01/07 19:15:07;;;;;;;7.90;5.03;;;;;;;3.57;74.84;99831.92;3084283;76;21138;-65
2021/01/07 19:19:10;;;;;;;10.40;6.22;;;;;;;3.61;74.80;99831.73;3099414;75;21103;-63
2021/01/07 19:23:14;;;;;;;11.28;7.70;;;;;;;3.63;75.20;99839.06;3086011;75;22155;-65
2021/01/07 19:27:17;;;;;;;12.75;8.18;;;;;;;3.67;75.09;99841.42;3093421;76;21164;-64
2021/01/07 19:31:20;;;;;;;11.93;7.15;;;;;;;3.69;74.83;99836.91;3081856;75;21146;-64